Aérodrome :
LOGIN :

S'inscrire | Disclaimer

   EN    FR    IT 

 










Légende :    VFR   VFR Marginal   IFR   IFR Intensif   IFR Très Intensif
Visi : 
Plafond : 
>= 8 km
>= 3000ft
5 à 8 km
1000 à 3000 ft
1500m à 5 km
500 à 1000 ft
800 à 1500m
200 à 500 ft
< 800m
< 200 ft
Symboles :   Orages  Brouillard  Fortes neiges  Fortes précipitations  Vent > 20 kt
SIGMETs :   Divers  Orages  Givrage  Turbulence  Onde Orograph.  Cendres Volcan.







- Altitude de l'aérodrome : 1036 ft
- Code IATA : CLJ


LRCL - Cluj-Napoca International

DERNIER METAR :
  • 200000Z 07005KT CAVOK 18/12 Q1005

METARs EXPIRÉS :
  • 192330Z 06003KT CAVOK 17/12 Q1006
  • 192300Z 08006KT CAVOK 17/11 Q1006
  • 192230Z 08007KT CAVOK 18/11 Q1006
  • 192200Z 03006KT 360V060 CAVOK 18/11 Q1006
  • 192130Z 04003KT CAVOK 17/11 Q1006

TAF TAF LRCL
Valide du 20 à 00h jusqu'au 20 à 09h UTC


192300Z 2000/2009 VRB04KT CAVOK
PROB30
TEMPO 2000/2003 TSRA FEW040CB
TEMPO 2003/2006 SCT040CB
BECMG 2006/2008 SCT030CB
TEMPO 2008/2009 VRB20KT 5000 TSRA
Pas de NOTAMs connus pour ce terrain.



MET'MAP, la Météo Aéronautique d'un coup d'oeil ! - Copyright ORBIFLY Décembre 2007 - Disclaimer

ORBIFLY MET'MAP TEAM :

Programmation & Développement : Alexandra Zaïnal
Conception & Développement : Baudouin d'Aumeries
Co-Programmation & Développement : Marc-Olivier Méhu
Soutien technique & logistique : Manuel Goepfert

Contact : metmap@orbifly.com




SOURCES & CREDITS :

   NOAA